sensor_id;sensor_type;location;lat;lon;timestamp;P1;durP1;ratioP1;P2;durP2;ratioP2
70761;SDS011;58360;0.000;0.000;2022-11-11T00:01:04;15.52;;;9.18;;
70761;SDS011;58360;0.000;0.000;2022-11-11T00:03:31;19.70;;;10.40;;
70761;SDS011;58360;0.000;0.000;2022-11-11T00:06:01;19.92;;;10.27;;
70761;SDS011;58360;0.000;0.000;2022-11-11T00:08:32;17.17;;;9.38;;
70761;SDS011;58360;0.000;0.000;2022-11-11T00:11:08;19.60;;;9.40;;
70761;SDS011;58360;0.000;0.000;2022-11-11T00:13:35;15.15;;;8.48;;
70761;SDS011;58360;0.000;0.000;2022-11-11T00:16:20;15.73;;;8.93;;
70761;SDS011;58360;0.000;0.000;2022-11-11T00:18:46;16.67;;;9.57;;
70761;SDS011;58360;0.000;0.000;2022-11-11T00:21:31;22.35;;;9.75;;
70761;SDS011;58360;0.000;0.000;2022-11-11T00:24:03;16.77;;;8.93;;
70761;SDS011;58360;0.000;0.000;2022-11-11T00:26:48;17.05;;;8.75;;
70761;SDS011;58360;0.000;0.000;2022-11-11T00:29:14;16.35;;;8.68;;
70761;SDS011;58360;0.000;0.000;2022-11-11T00:31:39;24.13;;;9.57;;
70761;SDS011;58360;0.000;0.000;2022-11-11T00:34:25;14.57;;;8.93;;
70761;SDS011;58360;0.000;0.000;2022-11-11T00:36:51;16.35;;;8.82;;
70761;SDS011;58360;0.000;0.000;2022-11-11T00:39:17;19.85;;;8.45;;
70761;SDS011;58360;0.000;0.000;2022-11-11T00:41:43;18.10;;;8.65;;
70761;SDS011;58360;0.000;0.000;2022-11-11T00:44:09;16.48;;;8.80;;
70761;SDS011;58360;0.000;0.000;2022-11-11T00:46:34;14.82;;;8.38;;
70761;SDS011;58360;0.000;0.000;2022-11-11T00:49:18;15.80;;;8.40;;
70761;SDS011;58360;0.000;0.000;2022-11-11T00:52:02;19.27;;;8.52;;
70761;SDS011;58360;0.000;0.000;2022-11-11T00:54:28;13.82;;;7.75;;
70761;SDS011;58360;0.000;0.000;2022-11-11T00:56:54;15.43;;;8.50;;
70761;SDS011;58360;0.000;0.000;2022-11-11T00:59:19;16.67;;;8.30;;
70761;SDS011;58360;0.000;0.000;2022-11-11T01:01:45;12.00;;;7.95;;
70761;SDS011;58360;0.000;0.000;2022-11-11T01:04:11;22.27;;;8.60;;
70761;SDS011;58360;0.000;0.000;2022-11-11T01:06:36;13.93;;;8.10;;
70761;SDS011;58360;0.000;0.000;2022-11-11T01:09:05;14.07;;;7.50;;
70761;SDS011;58360;0.000;0.000;2022-11-11T01:11:31;17.63;;;8.20;;
70761;SDS011;58360;0.000;0.000;2022-11-11T01:13:57;14.70;;;8.70;;
70761;SDS011;58360;0.000;0.000;2022-11-11T01:16:24;17.55;;;8.07;;
70761;SDS011;58360;0.000;0.000;2022-11-11T01:18:51;16.45;;;7.72;;
70761;SDS011;58360;0.000;0.000;2022-11-11T01:21:24;17.20;;;8.52;;
70761;SDS011;58360;0.000;0.000;2022-11-11T01:23:50;15.35;;;7.80;;
70761;SDS011;58360;0.000;0.000;2022-11-11T01:26:18;16.60;;;8.00;;
70761;SDS011;58360;0.000;0.000;2022-11-11T01:28:49;14.15;;;8.38;;
70761;SDS011;58360;0.000;0.000;2022-11-11T01:31:19;17.85;;;8.18;;
70761;SDS011;58360;0.000;0.000;2022-11-11T01:33:46;16.40;;;7.93;;
70761;SDS011;58360;0.000;0.000;2022-11-11T01:36:13;12.90;;;7.68;;
70761;SDS011;58360;0.000;0.000;2022-11-11T01:38:51;15.93;;;8.25;;
70761;SDS011;58360;0.000;0.000;2022-11-11T01:41:20;14.32;;;8.23;;
70761;SDS011;58360;0.000;0.000;2022-11-11T01:44:00;19.40;;;8.70;;
70761;SDS011;58360;0.000;0.000;2022-11-11T01:46:40;19.13;;;8.68;;
70761;SDS011;58360;0.000;0.000;2022-11-11T01:49:29;16.42;;;8.80;;
70761;SDS011;58360;0.000;0.000;2022-11-11T01:52:12;13.38;;;8.45;;
70761;SDS011;58360;0.000;0.000;2022-11-11T01:54:40;23.42;;;9.38;;
70761;SDS011;58360;0.000;0.000;2022-11-11T02:00:08;14.77;;;8.38;;
70761;SDS011;58360;0.000;0.000;2022-11-11T02:05:10;21.73;;;8.93;;
70761;SDS011;58360;0.000;0.000;2022-11-11T02:07:56;17.10;;;8.57;;
70761;SDS011;58360;0.000;0.000;2022-11-11T02:10:25;20.50;;;9.05;;
70761;SDS011;58360;0.000;0.000;2022-11-11T02:12:54;16.90;;;9.38;;
70761;SDS011;58360;0.000;0.000;2022-11-11T02:15:38;14.90;;;8.90;;
70761;SDS011;58360;0.000;0.000;2022-11-11T02:18:04;15.30;;;8.05;;
70761;SDS011;58360;0.000;0.000;2022-11-11T02:20:33;16.55;;;8.40;;
70761;SDS011;58360;0.000;0.000;2022-11-11T02:25:51;14.77;;;8.50;;
70761;SDS011;58360;0.000;0.000;2022-11-11T02:28:19;17.42;;;7.80;;
70761;SDS011;58360;0.000;0.000;2022-11-11T02:30:46;18.55;;;8.20;;
70761;SDS011;58360;0.000;0.000;2022-11-11T02:33:12;18.38;;;8.63;;
70761;SDS011;58360;0.000;0.000;2022-11-11T02:35:39;17.73;;;7.50;;
70761;SDS011;58360;0.000;0.000;2022-11-11T02:38:09;20.02;;;8.25;;
70761;SDS011;58360;0.000;0.000;2022-11-11T02:40:42;15.23;;;8.30;;
70761;SDS011;58360;0.000;0.000;2022-11-11T02:43:29;12.25;;;7.63;;
70761;SDS011;58360;0.000;0.000;2022-11-11T02:45:56;13.18;;;7.10;;
70761;SDS011;58360;0.000;0.000;2022-11-11T02:48:23;13.68;;;7.38;;
70761;SDS011;58360;0.000;0.000;2022-11-11T02:50:49;18.42;;;8.65;;
70761;SDS011;58360;0.000;0.000;2022-11-11T02:53:15;13.23;;;7.05;;
70761;SDS011;58360;0.000;0.000;2022-11-11T02:55:41;14.57;;;7.88;;
70761;SDS011;58360;0.000;0.000;2022-11-11T02:58:07;16.73;;;8.27;;
70761;SDS011;58360;0.000;0.000;2022-11-11T03:00:33;14.95;;;7.90;;
70761;SDS011;58360;0.000;0.000;2022-11-11T03:02:59;17.98;;;7.43;;
70761;SDS011;58360;0.000;0.000;2022-11-11T03:05:24;15.73;;;7.55;;
70761;SDS011;58360;0.000;0.000;2022-11-11T03:07:50;16.13;;;7.20;;
70761;SDS011;58360;0.000;0.000;2022-11-11T03:10:16;12.43;;;7.35;;
70761;SDS011;58360;0.000;0.000;2022-11-11T03:12:41;12.07;;;7.22;;
70761;SDS011;58360;0.000;0.000;2022-11-11T03:15:07;11.63;;;6.75;;
70761;SDS011;58360;0.000;0.000;2022-11-11T03:17:34;15.32;;;7.53;;
70761;SDS011;58360;0.000;0.000;2022-11-11T03:20:06;16.00;;;7.60;;
70761;SDS011;58360;0.000;0.000;2022-11-11T03:23:16;13.38;;;7.03;;
70761;SDS011;58360;0.000;0.000;2022-11-11T03:25:43;11.15;;;6.72;;
70761;SDS011;58360;0.000;0.000;2022-11-11T03:28:11;17.67;;;8.52;;
70761;SDS011;58360;0.000;0.000;2022-11-11T03:30:45;12.43;;;7.25;;
70761;SDS011;58360;0.000;0.000;2022-11-11T03:33:12;16.50;;;6.95;;
70761;SDS011;58360;0.000;0.000;2022-11-11T03:35:39;19.42;;;7.88;;
70761;SDS011;58360;0.000;0.000;2022-11-11T03:38:06;14.45;;;8.75;;
70761;SDS011;58360;0.000;0.000;2022-11-11T03:40:43;16.42;;;7.78;;
70761;SDS011;58360;0.000;0.000;2022-11-11T03:43:11;14.30;;;7.90;;
70761;SDS011;58360;0.000;0.000;2022-11-11T03:45:37;19.95;;;9.25;;
70761;SDS011;58360;0.000;0.000;2022-11-11T03:48:03;18.70;;;9.13;;
70761;SDS011;58360;0.000;0.000;2022-11-11T03:50:30;16.77;;;9.82;;
70761;SDS011;58360;0.000;0.000;2022-11-11T03:52:56;18.33;;;9.35;;
70761;SDS011;58360;0.000;0.000;2022-11-11T03:55:21;19.08;;;10.63;;
70761;SDS011;58360;0.000;0.000;2022-11-11T03:57:47;20.38;;;11.52;;
70761;SDS011;58360;0.000;0.000;2022-11-11T04:00:14;23.50;;;12.32;;
70761;SDS011;58360;0.000;0.000;2022-11-11T04:02:41;21.98;;;13.52;;
70761;SDS011;58360;0.000;0.000;2022-11-11T04:05:26;24.27;;;15.38;;
70761;SDS011;58360;0.000;0.000;2022-11-11T04:08:11;20.00;;;13.32;;
70761;SDS011;58360;0.000;0.000;2022-11-11T04:11:02;22.70;;;14.70;;
70761;SDS011;58360;0.000;0.000;2022-11-11T04:13:31;25.60;;;14.75;;
70761;SDS011;58360;0.000;0.000;2022-11-11T04:16:15;27.33;;;15.52;;
70761;SDS011;58360;0.000;0.000;2022-11-11T04:18:41;25.88;;;15.85;;
70761;SDS011;58360;0.000;0.000;2022-11-11T04:21:26;22.60;;;14.95;;
70761;SDS011;58360;0.000;0.000;2022-11-11T04:26:59;26.20;;;15.40;;
70761;SDS011;58360;0.000;0.000;2022-11-11T04:29:27;24.08;;;14.40;;
70761;SDS011;58360;0.000;0.000;2022-11-11T04:34:45;27.17;;;14.05;;
70761;SDS011;58360;0.000;0.000;2022-11-11T04:37:13;19.08;;;12.27;;
70761;SDS011;58360;0.000;0.000;2022-11-11T04:39:39;23.83;;;13.52;;
70761;SDS011;58360;0.000;0.000;2022-11-11T04:42:24;19.55;;;12.48;;
70761;SDS011;58360;0.000;0.000;2022-11-11T04:44:50;25.60;;;12.73;;
70761;SDS011;58360;0.000;0.000;2022-11-11T04:47:34;21.80;;;12.02;;
70761;SDS011;58360;0.000;0.000;2022-11-11T04:50:00;23.45;;;12.82;;
70761;SDS011;58360;0.000;0.000;2022-11-11T04:52:26;20.05;;;12.38;;
70761;SDS011;58360;0.000;0.000;2022-11-11T04:54:52;20.77;;;12.73;;
70761;SDS011;58360;0.000;0.000;2022-11-11T04:57:44;22.92;;;12.15;;
70761;SDS011;58360;0.000;0.000;2022-11-11T05:00:13;20.08;;;12.75;;
70761;SDS011;58360;0.000;0.000;2022-11-11T05:02:41;20.67;;;12.15;;
70761;SDS011;58360;0.000;0.000;2022-11-11T05:05:25;20.65;;;12.63;;
70761;SDS011;58360;0.000;0.000;2022-11-11T05:07:52;17.48;;;11.63;;
70761;SDS011;58360;0.000;0.000;2022-11-11T05:10:37;21.77;;;12.95;;
70761;SDS011;58360;0.000;0.000;2022-11-11T05:13:03;20.55;;;12.05;;
70761;SDS011;58360;0.000;0.000;2022-11-11T05:15:48;17.92;;;11.65;;
70761;SDS011;58360;0.000;0.000;2022-11-11T05:18:32;17.25;;;11.40;;
70761;SDS011;58360;0.000;0.000;2022-11-11T05:21:18;22.90;;;13.23;;
70761;SDS011;58360;0.000;0.000;2022-11-11T05:23:48;19.38;;;11.50;;
70761;SDS011;58360;0.000;0.000;2022-11-11T05:26:32;21.30;;;10.60;;
70761;SDS011;58360;0.000;0.000;2022-11-11T05:28:58;20.23;;;11.18;;
70761;SDS011;58360;0.000;0.000;2022-11-11T05:31:24;20.45;;;11.00;;
70761;SDS011;58360;0.000;0.000;2022-11-11T05:33:49;18.73;;;11.07;;
70761;SDS011;58360;0.000;0.000;2022-11-11T05:36:15;16.73;;;10.70;;
70761;SDS011;58360;0.000;0.000;2022-11-11T05:38:41;20.45;;;10.93;;
70761;SDS011;58360;0.000;0.000;2022-11-11T05:41:07;22.60;;;10.50;;
70761;SDS011;58360;0.000;0.000;2022-11-11T05:43:33;18.58;;;11.07;;
70761;SDS011;58360;0.000;0.000;2022-11-11T05:45:59;18.98;;;10.45;;
70761;SDS011;58360;0.000;0.000;2022-11-11T05:48:25;18.98;;;10.60;;
70761;SDS011;58360;0.000;0.000;2022-11-11T05:50:50;21.55;;;11.07;;
70761;SDS011;58360;0.000;0.000;2022-11-11T05:53:16;17.10;;;10.45;;
70761;SDS011;58360;0.000;0.000;2022-11-11T05:55:49;18.42;;;10.60;;
70761;SDS011;58360;0.000;0.000;2022-11-11T05:58:16;15.65;;;10.52;;
70761;SDS011;58360;0.000;0.000;2022-11-11T06:00:42;16.73;;;10.43;;
70761;SDS011;58360;0.000;0.000;2022-11-11T06:03:08;22.67;;;11.73;;
70761;SDS011;58360;0.000;0.000;2022-11-11T06:05:34;25.45;;;11.10;;
70761;SDS011;58360;0.000;0.000;2022-11-11T06:08:01;17.83;;;10.65;;
70761;SDS011;58360;0.000;0.000;2022-11-11T06:10:26;16.77;;;11.13;;
70761;SDS011;58360;0.000;0.000;2022-11-11T06:12:55;18.20;;;11.00;;
70761;SDS011;58360;0.000;0.000;2022-11-11T06:15:34;17.95;;;10.30;;
70761;SDS011;58360;0.000;0.000;2022-11-11T06:18:01;16.63;;;10.77;;
70761;SDS011;58360;0.000;0.000;2022-11-11T06:20:27;19.63;;;9.40;;
70761;SDS011;58360;0.000;0.000;2022-11-11T06:22:53;17.05;;;9.65;;
70761;SDS011;58360;0.000;0.000;2022-11-11T06:25:23;16.10;;;9.68;;
70761;SDS011;58360;0.000;0.000;2022-11-11T06:28:08;18.08;;;9.27;;
70761;SDS011;58360;0.000;0.000;2022-11-11T06:30:35;16.08;;;9.55;;
70761;SDS011;58360;0.000;0.000;2022-11-11T06:33:01;15.80;;;9.15;;
70761;SDS011;58360;0.000;0.000;2022-11-11T06:35:26;13.60;;;9.23;;
70761;SDS011;58360;0.000;0.000;2022-11-11T06:37:52;16.13;;;9.40;;
70761;SDS011;58360;0.000;0.000;2022-11-11T06:40:18;14.52;;;8.90;;
70761;SDS011;58360;0.000;0.000;2022-11-11T06:42:43;18.88;;;9.10;;
70761;SDS011;58360;0.000;0.000;2022-11-11T06:45:09;16.42;;;9.00;;
70761;SDS011;58360;0.000;0.000;2022-11-11T06:47:35;20.98;;;9.50;;
70761;SDS011;58360;0.000;0.000;2022-11-11T06:50:00;15.30;;;9.40;;
70761;SDS011;58360;0.000;0.000;2022-11-11T06:52:26;15.68;;;9.05;;
70761;SDS011;58360;0.000;0.000;2022-11-11T06:54:52;14.57;;;9.13;;
70761;SDS011;58360;0.000;0.000;2022-11-11T06:57:18;15.07;;;8.55;;
70761;SDS011;58360;0.000;0.000;2022-11-11T06:59:47;14.90;;;8.55;;
70761;SDS011;58360;0.000;0.000;2022-11-11T07:02:13;18.45;;;9.18;;
70761;SDS011;58360;0.000;0.000;2022-11-11T07:04:38;16.23;;;8.68;;
70761;SDS011;58360;0.000;0.000;2022-11-11T07:07:04;16.33;;;8.73;;
70761;SDS011;58360;0.000;0.000;2022-11-11T07:09:30;16.92;;;9.13;;
70761;SDS011;58360;0.000;0.000;2022-11-11T07:11:55;13.93;;;8.20;;
70761;SDS011;58360;0.000;0.000;2022-11-11T07:14:21;19.05;;;8.63;;
70761;SDS011;58360;0.000;0.000;2022-11-11T07:16:47;19.75;;;8.82;;
70761;SDS011;58360;0.000;0.000;2022-11-11T07:19:12;17.98;;;8.73;;
70761;SDS011;58360;0.000;0.000;2022-11-11T07:21:38;13.80;;;8.25;;
70761;SDS011;58360;0.000;0.000;2022-11-11T07:24:04;15.10;;;8.57;;
70761;SDS011;58360;0.000;0.000;2022-11-11T07:26:30;19.13;;;8.73;;
70761;SDS011;58360;0.000;0.000;2022-11-11T07:28:55;16.50;;;9.40;;
70761;SDS011;58360;0.000;0.000;2022-11-11T07:31:21;16.40;;;9.70;;
70761;SDS011;58360;0.000;0.000;2022-11-11T07:33:47;21.10;;;10.25;;
70761;SDS011;58360;0.000;0.000;2022-11-11T07:36:13;21.98;;;10.93;;
70761;SDS011;58360;0.000;0.000;2022-11-11T07:38:38;16.00;;;10.07;;
70761;SDS011;58360;0.000;0.000;2022-11-11T07:41:04;16.55;;;9.65;;
70761;SDS011;58360;0.000;0.000;2022-11-11T07:43:30;14.93;;;9.02;;
70761;SDS011;58360;0.000;0.000;2022-11-11T07:45:55;14.57;;;9.85;;
70761;SDS011;58360;0.000;0.000;2022-11-11T07:48:21;20.67;;;8.80;;
70761;SDS011;58360;0.000;0.000;2022-11-11T07:50:47;13.52;;;8.50;;
70761;SDS011;58360;0.000;0.000;2022-11-11T07:53:12;17.25;;;8.30;;
70761;SDS011;58360;0.000;0.000;2022-11-11T07:55:38;18.75;;;8.13;;
70761;SDS011;58360;0.000;0.000;2022-11-11T07:58:04;14.10;;;8.48;;
70761;SDS011;58360;0.000;0.000;2022-11-11T08:00:30;17.90;;;8.82;;
70761;SDS011;58360;0.000;0.000;2022-11-11T08:02:56;13.60;;;8.20;;
70761;SDS011;58360;0.000;0.000;2022-11-11T08:05:22;14.55;;;8.18;;
70761;SDS011;58360;0.000;0.000;2022-11-11T08:07:47;16.75;;;8.93;;
70761;SDS011;58360;0.000;0.000;2022-11-11T08:10:13;16.90;;;8.35;;
70761;SDS011;58360;0.000;0.000;2022-11-11T08:12:39;19.85;;;8.70;;
70761;SDS011;58360;0.000;0.000;2022-11-11T08:15:23;19.88;;;8.55;;
70761;SDS011;58360;0.000;0.000;2022-11-11T08:17:48;15.85;;;9.27;;
70761;SDS011;58360;0.000;0.000;2022-11-11T08:20:14;18.13;;;8.85;;
70761;SDS011;58360;0.000;0.000;2022-11-11T08:22:41;15.82;;;9.38;;
70761;SDS011;58360;0.000;0.000;2022-11-11T08:25:07;24.15;;;9.80;;
70761;SDS011;58360;0.000;0.000;2022-11-11T08:27:35;16.05;;;9.50;;
70761;SDS011;58360;0.000;0.000;2022-11-11T08:30:01;16.13;;;9.65;;
70761;SDS011;58360;0.000;0.000;2022-11-11T08:32:27;16.33;;;10.63;;
70761;SDS011;58360;0.000;0.000;2022-11-11T08:34:53;24.25;;;10.48;;
70761;SDS011;58360;0.000;0.000;2022-11-11T08:37:19;20.85;;;10.40;;
70761;SDS011;58360;0.000;0.000;2022-11-11T08:39:44;19.70;;;10.30;;
70761;SDS011;58360;0.000;0.000;2022-11-11T08:42:10;19.30;;;9.85;;
70761;SDS011;58360;0.000;0.000;2022-11-11T08:44:36;22.15;;;10.15;;
70761;SDS011;58360;0.000;0.000;2022-11-11T08:47:01;17.48;;;10.32;;
70761;SDS011;58360;0.000;0.000;2022-11-11T08:49:27;18.20;;;10.25;;
70761;SDS011;58360;0.000;0.000;2022-11-11T08:51:53;19.33;;;10.55;;
70761;SDS011;58360;0.000;0.000;2022-11-11T08:54:18;21.95;;;10.10;;
70761;SDS011;58360;0.000;0.000;2022-11-11T08:56:44;15.60;;;9.80;;
70761;SDS011;58360;0.000;0.000;2022-11-11T08:59:10;16.27;;;9.55;;
70761;SDS011;58360;0.000;0.000;2022-11-11T09:01:36;18.02;;;10.18;;
70761;SDS011;58360;0.000;0.000;2022-11-11T09:04:02;16.55;;;10.18;;
70761;SDS011;58360;0.000;0.000;2022-11-11T09:06:28;17.90;;;10.02;;
70761;SDS011;58360;0.000;0.000;2022-11-11T09:08:53;18.05;;;9.80;;
70761;SDS011;58360;0.000;0.000;2022-11-11T09:11:19;17.27;;;9.65;;
70761;SDS011;58360;0.000;0.000;2022-11-11T09:13:48;17.85;;;9.93;;
70761;SDS011;58360;0.000;0.000;2022-11-11T09:16:14;15.23;;;9.15;;
70761;SDS011;58360;0.000;0.000;2022-11-11T09:18:39;17.35;;;10.85;;
70761;SDS011;58360;0.000;0.000;2022-11-11T09:21:05;15.75;;;9.18;;
70761;SDS011;58360;0.000;0.000;2022-11-11T09:23:31;16.55;;;9.32;;
70761;SDS011;58360;0.000;0.000;2022-11-11T09:25:59;16.27;;;10.15;;
70761;SDS011;58360;0.000;0.000;2022-11-11T09:28:28;18.73;;;9.47;;
70761;SDS011;58360;0.000;0.000;2022-11-11T09:30:57;17.20;;;9.68;;
70761;SDS011;58360;0.000;0.000;2022-11-11T09:33:24;13.88;;;9.05;;
70761;SDS011;58360;0.000;0.000;2022-11-11T09:35:50;17.02;;;9.40;;
70761;SDS011;58360;0.000;0.000;2022-11-11T09:38:16;14.90;;;8.82;;
70761;SDS011;58360;0.000;0.000;2022-11-11T09:40:47;18.52;;;9.52;;
70761;SDS011;58360;0.000;0.000;2022-11-11T09:43:33;20.52;;;9.32;;
70761;SDS011;58360;0.000;0.000;2022-11-11T09:46:21;19.00;;;9.10;;
70761;SDS011;58360;0.000;0.000;2022-11-11T09:54:22;14.88;;;9.23;;
70761;SDS011;58360;0.000;0.000;2022-11-11T09:56:59;18.67;;;9.40;;
70761;SDS011;58360;0.000;0.000;2022-11-11T09:59:32;11.83;;;7.97;;
70761;SDS011;58360;0.000;0.000;2022-11-11T10:02:11;13.77;;;7.95;;
70761;SDS011;58360;0.000;0.000;2022-11-11T10:07:58;11.60;;;7.22;;
70761;SDS011;58360;0.000;0.000;2022-11-11T10:10:40;17.35;;;8.40;;
70761;SDS011;58360;0.000;0.000;2022-11-11T10:13:16;14.63;;;8.10;;
70761;SDS011;58360;0.000;0.000;2022-11-11T10:15:52;15.88;;;7.97;;
70761;SDS011;58360;0.000;0.000;2022-11-11T10:18:44;15.70;;;9.13;;
70761;SDS011;58360;0.000;0.000;2022-11-11T10:21:15;16.23;;;8.45;;
70761;SDS011;58360;0.000;0.000;2022-11-11T10:23:48;13.45;;;8.20;;
70761;SDS011;58360;0.000;0.000;2022-11-11T10:26:23;14.50;;;8.40;;
70761;SDS011;58360;0.000;0.000;2022-11-11T10:28:59;18.35;;;7.95;;
70761;SDS011;58360;0.000;0.000;2022-11-11T10:31:27;14.55;;;8.27;;
70761;SDS011;58360;0.000;0.000;2022-11-11T10:34:00;18.88;;;8.50;;
70761;SDS011;58360;0.000;0.000;2022-11-11T10:36:29;14.70;;;8.10;;
70761;SDS011;58360;0.000;0.000;2022-11-11T10:38:59;17.55;;;8.48;;
70761;SDS011;58360;0.000;0.000;2022-11-11T10:41:43;12.57;;;7.22;;
70761;SDS011;58360;0.000;0.000;2022-11-11T10:44:22;13.52;;;6.90;;
70761;SDS011;58360;0.000;0.000;2022-11-11T10:46:54;11.98;;;6.95;;
70761;SDS011;58360;0.000;0.000;2022-11-11T10:49:48;13.95;;;6.95;;
70761;SDS011;58360;0.000;0.000;2022-11-11T10:52:25;13.00;;;7.05;;
70761;SDS011;58360;0.000;0.000;2022-11-11T10:57:36;15.38;;;7.22;;
70761;SDS011;58360;0.000;0.000;2022-11-11T11:00:11;12.52;;;6.28;;
70761;SDS011;58360;0.000;0.000;2022-11-11T11:05:25;15.60;;;6.93;;
70761;SDS011;58360;0.000;0.000;2022-11-11T11:07:57;12.05;;;6.70;;
70761;SDS011;58360;0.000;0.000;2022-11-11T11:10:34;14.70;;;7.18;;
70761;SDS011;58360;0.000;0.000;2022-11-11T11:13:17;13.05;;;6.53;;
70761;SDS011;58360;0.000;0.000;2022-11-11T11:15:53;12.18;;;6.30;;
70761;SDS011;58360;0.000;0.000;2022-11-11T11:18:24;12.15;;;6.07;;
70761;SDS011;58360;0.000;0.000;2022-11-11T11:23:42;11.18;;;5.43;;
70761;SDS011;58360;0.000;0.000;2022-11-11T11:26:10;10.40;;;5.85;;
70761;SDS011;58360;0.000;0.000;2022-11-11T11:28:54;9.15;;;5.40;;
70761;SDS011;58360;0.000;0.000;2022-11-11T11:31:33;14.52;;;5.78;;
70761;SDS011;58360;0.000;0.000;2022-11-11T11:34:01;11.13;;;6.35;;
70761;SDS011;58360;0.000;0.000;2022-11-11T11:36:27;12.90;;;5.45;;
70761;SDS011;58360;0.000;0.000;2022-11-11T11:38:53;10.25;;;5.70;;
70761;SDS011;58360;0.000;0.000;2022-11-11T11:44:23;9.30;;;4.95;;
70761;SDS011;58360;0.000;0.000;2022-11-11T11:46:54;12.70;;;4.88;;
70761;SDS011;58360;0.000;0.000;2022-11-11T11:55:17;15.10;;;4.47;;
70761;SDS011;58360;0.000;0.000;2022-11-11T12:00:25;9.52;;;4.00;;
70761;SDS011;58360;0.000;0.000;2022-11-11T12:17:00;7.72;;;3.75;;
70761;SDS011;58360;0.000;0.000;2022-11-11T12:27:16;7.43;;;3.53;;
70761;SDS011;58360;0.000;0.000;2022-11-11T12:29:59;12.73;;;4.88;;
70761;SDS011;58360;0.000;0.000;2022-11-11T12:32:37;7.28;;;3.17;;
70761;SDS011;58360;0.000;0.000;2022-11-11T12:35:52;8.05;;;3.13;;
70761;SDS011;58360;0.000;0.000;2022-11-11T12:55:26;7.90;;;3.25;;
70761;SDS011;58360;0.000;0.000;2022-11-11T12:58:25;5.53;;;2.80;;
70761;SDS011;58360;0.000;0.000;2022-11-11T13:12:28;6.93;;;3.55;;
70761;SDS011;58360;0.000;0.000;2022-11-11T13:15:15;23.23;;;4.30;;
70761;SDS011;58360;0.000;0.000;2022-11-11T13:17:45;8.82;;;3.35;;
70761;SDS011;58360;0.000;0.000;2022-11-11T13:22:55;6.35;;;3.38;;
70761;SDS011;58360;0.000;0.000;2022-11-11T13:25:25;7.68;;;3.25;;
70761;SDS011;58360;0.000;0.000;2022-11-11T13:27:57;7.65;;;3.00;;
70761;SDS011;58360;0.000;0.000;2022-11-11T13:33:11;5.95;;;2.72;;
70761;SDS011;58360;0.000;0.000;2022-11-11T13:35:43;5.50;;;2.58;;
70761;SDS011;58360;0.000;0.000;2022-11-11T13:38:26;9.52;;;2.65;;
70761;SDS011;58360;0.000;0.000;2022-11-11T13:40:57;6.35;;;2.60;;
70761;SDS011;58360;0.000;0.000;2022-11-11T13:43:30;8.50;;;3.05;;
70761;SDS011;58360;0.000;0.000;2022-11-11T13:45:57;7.63;;;2.97;;
70761;SDS011;58360;0.000;0.000;2022-11-11T13:48:27;6.63;;;2.45;;
70761;SDS011;58360;0.000;0.000;2022-11-11T13:54:46;5.43;;;2.50;;
70761;SDS011;58360;0.000;0.000;2022-11-11T13:57:02;5.50;;;2.43;;
70761;SDS011;58360;0.000;0.000;2022-11-11T13:59:41;5.88;;;2.30;;
70761;SDS011;58360;0.000;0.000;2022-11-11T14:12:41;6.00;;;1.92;;
70761;SDS011;58360;0.000;0.000;2022-11-11T14:18:00;7.80;;;1.90;;
70761;SDS011;58360;0.000;0.000;2022-11-11T14:20:38;5.72;;;2.20;;
70761;SDS011;58360;0.000;0.000;2022-11-11T14:23:21;11.73;;;2.70;;
70761;SDS011;58360;0.000;0.000;2022-11-11T14:28:37;4.18;;;2.17;;
70761;SDS011;58360;0.000;0.000;2022-11-11T14:31:28;4.20;;;1.92;;
70761;SDS011;58360;0.000;0.000;2022-11-11T14:34:13;8.73;;;2.55;;
70761;SDS011;58360;0.000;0.000;2022-11-11T14:41:44;6.85;;;2.60;;
70761;SDS011;58360;0.000;0.000;2022-11-11T14:55:03;8.52;;;2.90;;
70761;SDS011;58360;0.000;0.000;2022-11-11T15:03:35;11.30;;;2.55;;
70761;SDS011;58360;0.000;0.000;2022-11-11T15:06:15;8.45;;;2.85;;
70761;SDS011;58360;0.000;0.000;2022-11-11T15:14:02;7.70;;;2.50;;
70761;SDS011;58360;0.000;0.000;2022-11-11T15:25:36;7.63;;;3.10;;
70761;SDS011;58360;0.000;0.000;2022-11-11T15:36:58;16.38;;;3.80;;
70761;SDS011;58360;0.000;0.000;2022-11-11T15:39:36;6.97;;;3.03;;
70761;SDS011;58360;0.000;0.000;2022-11-11T15:42:17;11.82;;;3.20;;
70761;SDS011;58360;0.000;0.000;2022-11-11T15:44:55;13.63;;;3.63;;
70761;SDS011;58360;0.000;0.000;2022-11-11T15:47:23;10.93;;;3.67;;
70761;SDS011;58360;0.000;0.000;2022-11-11T15:49:49;12.38;;;3.45;;
70761;SDS011;58360;0.000;0.000;2022-11-11T15:54:48;6.80;;;3.22;;
70761;SDS011;58360;0.000;0.000;2022-11-11T15:57:33;7.20;;;3.33;;
70761;SDS011;58360;0.000;0.000;2022-11-11T16:00:00;10.43;;;3.10;;
70761;SDS011;58360;0.000;0.000;2022-11-11T16:02:39;7.82;;;3.20;;
70761;SDS011;58360;0.000;0.000;2022-11-11T16:05:13;9.57;;;3.40;;
70761;SDS011;58360;0.000;0.000;2022-11-11T16:07:44;9.45;;;4.00;;
70761;SDS011;58360;0.000;0.000;2022-11-11T16:10:16;13.55;;;3.78;;
70761;SDS011;58360;0.000;0.000;2022-11-11T16:12:52;15.05;;;4.00;;
70761;SDS011;58360;0.000;0.000;2022-11-11T16:15:27;11.52;;;4.50;;
70761;SDS011;58360;0.000;0.000;2022-11-11T16:18:16;13.13;;;4.30;;
70761;SDS011;58360;0.000;0.000;2022-11-11T16:23:32;8.35;;;4.00;;
70761;SDS011;58360;0.000;0.000;2022-11-11T16:25:59;10.32;;;4.20;;
70761;SDS011;58360;0.000;0.000;2022-11-11T16:28:38;7.03;;;3.50;;
70761;SDS011;58360;0.000;0.000;2022-11-11T16:37:00;10.32;;;4.07;;
70761;SDS011;58360;0.000;0.000;2022-11-11T16:39:28;8.15;;;3.85;;
70761;SDS011;58360;0.000;0.000;2022-11-11T16:41:55;13.90;;;4.57;;
70761;SDS011;58360;0.000;0.000;2022-11-11T16:46:53;7.38;;;4.05;;
70761;SDS011;58360;0.000;0.000;2022-11-11T16:49:27;8.05;;;4.22;;
70761;SDS011;58360;0.000;0.000;2022-11-11T16:51:53;12.43;;;4.40;;
70761;SDS011;58360;0.000;0.000;2022-11-11T16:54:23;7.75;;;4.65;;
70761;SDS011;58360;0.000;0.000;2022-11-11T16:56:53;10.73;;;5.22;;
70761;SDS011;58360;0.000;0.000;2022-11-11T16:59:23;13.02;;;6.20;;
70761;SDS011;58360;0.000;0.000;2022-11-11T17:01:49;13.30;;;6.03;;
70761;SDS011;58360;0.000;0.000;2022-11-11T17:04:15;7.57;;;4.70;;
70761;SDS011;58360;0.000;0.000;2022-11-11T17:09:26;14.82;;;5.15;;
70761;SDS011;58360;0.000;0.000;2022-11-11T17:11:58;8.65;;;4.80;;
70761;SDS011;58360;0.000;0.000;2022-11-11T17:14:25;10.15;;;4.90;;
70761;SDS011;58360;0.000;0.000;2022-11-11T17:16:52;11.55;;;4.57;;
70761;SDS011;58360;0.000;0.000;2022-11-11T17:19:18;10.25;;;4.88;;
70761;SDS011;58360;0.000;0.000;2022-11-11T17:21:45;15.25;;;5.50;;
70761;SDS011;58360;0.000;0.000;2022-11-11T17:24:11;19.75;;;6.00;;
70761;SDS011;58360;0.000;0.000;2022-11-11T17:26:39;11.43;;;5.22;;
70761;SDS011;58360;0.000;0.000;2022-11-11T17:29:05;11.50;;;5.40;;
70761;SDS011;58360;0.000;0.000;2022-11-11T17:31:33;10.88;;;5.97;;
70761;SDS011;58360;0.000;0.000;2022-11-11T17:34:03;15.30;;;5.95;;
70761;SDS011;58360;0.000;0.000;2022-11-11T17:36:33;17.60;;;6.72;;
70761;SDS011;58360;0.000;0.000;2022-11-11T17:38:59;18.33;;;6.88;;
70761;SDS011;58360;0.000;0.000;2022-11-11T17:41:24;16.27;;;7.63;;
70761;SDS011;58360;0.000;0.000;2022-11-11T17:43:50;19.45;;;7.93;;
70761;SDS011;58360;0.000;0.000;2022-11-11T17:46:16;17.30;;;6.68;;
70761;SDS011;58360;0.000;0.000;2022-11-11T17:48:41;17.23;;;6.93;;
70761;SDS011;58360;0.000;0.000;2022-11-11T17:51:07;17.50;;;7.78;;
70761;SDS011;58360;0.000;0.000;2022-11-11T17:53:34;23.15;;;6.70;;
70761;SDS011;58360;0.000;0.000;2022-11-11T17:56:01;15.95;;;6.47;;
70761;SDS011;58360;0.000;0.000;2022-11-11T17:58:31;11.20;;;6.30;;
70761;SDS011;58360;0.000;0.000;2022-11-11T18:01:09;14.85;;;7.45;;
70761;SDS011;58360;0.000;0.000;2022-11-11T18:03:38;13.77;;;7.15;;
70761;SDS011;58360;0.000;0.000;2022-11-11T18:06:04;15.48;;;7.82;;
70761;SDS011;58360;0.000;0.000;2022-11-11T18:08:31;12.73;;;7.25;;